Time;durP1;ratioP1;P1;durP2;ratioP2;P2;SDS_P1;SDS_P2;PMS_P1;PMS_P2;Temp;Humidity;BMP_temperature;BMP_pressure;BME280_temperature;BME280_humidity;BME280_pressure;Samples;Min_cycle;Max_cycle;Signal;HPM_P1;HPM_P2
2020/12/31 00:00:10;;;;;;;3.30;3.00;;;0.70;99.90;;;;;;6162549;23;20022;-84
2020/12/31 00:02:36;;;;;;;3.40;3.20;;;0.60;99.90;;;;;;6136538;23;20021;-84
2020/12/31 00:05:03;;;;;;;3.25;2.95;;;0.60;99.90;;;;;;6162183;23;20022;-84
2020/12/31 00:07:29;;;;;;;3.97;3.20;;;0.60;99.90;;;;;;6136628;23;20073;-84
2020/12/31 00:09:56;;;;;;;3.28;3.08;;;0.50;99.90;;;;;;6162728;23;20025;-84
2020/12/31 00:12:22;;;;;;;3.97;3.58;;;0.50;99.90;;;;;;6162300;23;20021;-84
2020/12/31 00:14:48;;;;;;;3.65;3.35;;;0.50;99.90;;;;;;6158887;23;20026;-83
2020/12/31 00:17:14;;;;;;;4.20;3.80;;;0.50;99.90;;;;;;6130515;23;20025;-84
2020/12/31 00:19:41;;;;;;;3.25;2.92;;;0.60;99.90;;;;;;6130310;23;20540;-84
2020/12/31 00:22:07;;;;;;;3.20;3.00;;;0.70;99.90;;;;;;6131064;23;20026;-83
2020/12/31 00:24:33;;;;;;;3.63;3.33;;;0.70;99.90;;;;;;6159242;23;20028;-84
2020/12/31 00:26:59;;;;;;;5.90;4.75;;;0.70;99.90;;;;;;6161440;23;20049;-83
2020/12/31 00:29:26;;;;;;;4.82;3.90;;;0.90;99.90;;;;;;6160948;23;20072;-84
2020/12/31 00:31:52;;;;;;;4.88;4.13;;;1.10;99.90;;;;;;6160625;23;20052;-84
2020/12/31 00:34:18;;;;;;;4.25;3.85;;;1.10;99.90;;;;;;6160918;23;20069;-84
2020/12/31 00:36:47;;;;;;;4.30;4.00;;;1.20;99.90;;;;;;6134700;23;20400;-85
2020/12/31 00:39:13;;;;;;;4.25;3.50;;;1.20;99.90;;;;;;6134833;23;20057;-84
2020/12/31 00:41:40;;;;;;;5.50;3.80;;;1.30;99.90;;;;;;6161494;23;20053;-84
2020/12/31 00:44:11;;;;;;;3.90;3.50;;;1.40;99.90;;;;;;6160257;23;20074;-84
2020/12/31 00:46:38;;;;;;;3.67;3.38;;;1.40;99.90;;;;;;6161605;23;20100;-84
2020/12/31 00:49:04;;;;;;;3.53;3.33;;;1.40;99.90;;;;;;6135989;23;20045;-84
2020/12/31 00:51:31;;;;;;;4.38;2.72;;;1.30;99.90;;;;;;6161352;23;20021;-84
2020/12/31 00:53:57;;;;;;;3.92;3.33;;;1.20;99.90;;;;;;6160913;23;20026;-84
2020/12/31 00:56:24;;;;;;;3.75;3.35;;;1.00;99.90;;;;;;6134809;23;20031;-84
2020/12/31 00:58:50;;;;;;;6.68;3.20;;;0.80;99.90;;;;;;6133647;23;20073;-84
2020/12/31 01:01:17;;;;;;;3.72;3.38;;;0.70;99.90;;;;;;6159030;23;20064;-85
2020/12/31 01:03:43;;;;;;;4.03;3.63;;;0.60;99.90;;;;;;6159617;23;20095;-84
2020/12/31 01:06:10;;;;;;;4.38;3.35;;;0.70;99.90;;;;;;6133818;23;20021;-84
2020/12/31 01:08:36;;;;;;;2.97;2.78;;;0.60;99.90;;;;;;6134879;23;20022;-84
2020/12/31 01:11:03;;;;;;;3.28;3.08;;;0.50;99.90;;;;;;6160644;23;20025;-83
2020/12/31 01:13:30;;;;;;;3.35;2.90;;;0.40;99.90;;;;;;6133578;23;20042;-84
2020/12/31 01:15:56;;;;;;;3.75;2.88;;;0.30;99.90;;;;;;6160392;23;20108;-84
2020/12/31 01:18:22;;;;;;;3.05;2.63;;;0.20;99.90;;;;;;6134002;23;20040;-84
2020/12/31 01:20:48;;;;;;;4.40;3.22;;;0.10;99.90;;;;;;6160311;23;20025;-84
2020/12/31 01:23:15;;;;;;;4.40;4.00;;;0.20;99.90;;;;;;6133997;23;20049;-84
2020/12/31 01:25:41;;;;;;;4.70;4.30;;;0.30;99.90;;;;;;6133289;23;20053;-84
2020/12/31 01:28:07;;;;;;;5.63;4.82;;;0.40;99.90;;;;;;6159572;23;20040;-84
2020/12/31 01:30:34;;;;;;;4.60;4.00;;;0.40;99.90;;;;;;6159266;23;20097;-83
2020/12/31 01:33:00;;;;;;;5.07;4.53;;;0.50;99.90;;;;;;6134402;23;20392;-84
2020/12/31 01:35:26;;;;;;;7.88;4.57;;;0.60;99.90;;;;;;6159599;23;20021;-84
2020/12/31 01:37:52;;;;;;;8.60;4.53;;;0.70;99.90;;;;;;6160076;23;20018;-84
2020/12/31 01:40:18;;;;;;;5.57;4.82;;;0.60;99.90;;;;;;6159167;23;20022;-84
2020/12/31 01:42:45;;;;;;;4.72;4.15;;;0.60;99.90;;;;;;6158760;23;20154;-84
2020/12/31 01:45:11;;;;;;;6.60;4.93;;;0.70;99.90;;;;;;6132314;23;20460;-84
2020/12/31 01:47:37;;;;;;;4.68;4.28;;;0.70;99.90;;;;;;6158308;23;20479;-84
2020/12/31 01:50:05;;;;;;;4.70;4.30;;;0.70;99.90;;;;;;6132728;23;20474;-84
2020/12/31 01:52:33;;;;;;;5.00;4.30;;;0.80;99.90;;;;;;6132936;23;20053;-84
2020/12/31 01:55:02;;;;;;;7.15;4.63;;;0.90;99.90;;;;;;6158570;23;20047;-84
2020/12/31 01:57:29;;;;;;;3.85;3.55;;;0.90;99.90;;;;;;6158531;23;20480;-83
2020/12/31 01:59:57;;;;;;;4.53;4.20;;;0.90;99.90;;;;;;6132382;23;20360;-83
2020/12/31 02:02:24;;;;;;;3.85;3.40;;;0.80;99.90;;;;;;6159362;23;20025;-84
2020/12/31 02:04:52;;;;;;;3.80;3.50;;;0.80;99.90;;;;;;6158237;23;20048;-83
2020/12/31 02:07:20;;;;;;;3.58;3.28;;;0.60;99.90;;;;;;6154946;23;20467;-83
2020/12/31 02:09:47;;;;;;;2.67;2.47;;;0.40;99.90;;;;;;6128840;23;20022;-82
2020/12/31 02:12:13;;;;;;;2.88;2.67;;;0.20;99.90;;;;;;6129452;23;20390;-83
2020/12/31 02:14:50;;;;;;;3.75;3.33;;;0.10;99.90;;;;;;6156537;23;20076;-84
2020/12/31 02:17:16;;;;;;;5.00;3.25;;;-0.10;99.90;;;;;;6131540;23;20052;-83
2020/12/31 02:19:43;;;;;;;2.67;2.58;;;-0.10;99.90;;;;;;6157575;23;20036;-83
2020/12/31 02:22:11;;;;;;;4.65;3.05;;;-0.20;99.90;;;;;;6157521;23;20057;-83
2020/12/31 02:24:38;;;;;;;2.90;2.80;;;-0.30;99.90;;;;;;6131244;23;20017;-83
2020/12/31 02:27:05;;;;;;;3.42;3.13;;;-0.40;99.90;;;;;;6131326;23;20096;-84
2020/12/31 02:29:31;;;;;;;3.28;3.00;;;-0.50;99.90;;;;;;6131377;23;20160;-84
2020/12/31 02:31:58;;;;;;;3.42;2.78;;;-0.60;99.90;;;;;;6156953;23;20352;-83
2020/12/31 02:34:25;;;;;;;3.10;2.90;;;-0.80;99.90;;;;;;6162459;23;20045;-85
2020/12/31 02:36:51;;;;;;;3.72;3.35;;;-0.80;99.90;;;;;;6136133;23;20045;-85
2020/12/31 02:39:18;;;;;;;5.32;3.65;;;-0.70;99.90;;;;;;6136620;23;20025;-85
2020/12/31 02:41:45;;;;;;;5.13;3.92;;;-0.70;99.90;;;;;;6136076;23;20080;-85
2020/12/31 02:44:12;;;;;;;4.38;3.97;;;-0.70;99.90;;;;;;6135702;23;20017;-85
2020/12/31 02:46:38;;;;;;;4.68;3.40;;;-0.70;99.90;;;;;;6135776;23;20021;-84
2020/12/31 02:49:05;;;;;;;4.05;3.65;;;-0.80;99.90;;;;;;6136235;23;20022;-85
2020/12/31 02:51:32;;;;;;;4.05;3.70;;;-0.80;99.90;;;;;;6161204;23;20029;-85
2020/12/31 02:53:58;;;;;;;4.60;3.55;;;-0.80;99.90;;;;;;6161697;23;20065;-85
2020/12/31 02:56:25;;;;;;;4.78;3.55;;;-0.80;99.90;;;;;;6160800;23;20026;-84
2020/12/31 02:58:51;;;;;;;5.32;4.15;;;-0.80;99.90;;;;;;6134274;23;20052;-84
2020/12/31 03:01:22;;;;;;;7.40;5.15;;;-0.70;99.90;;;;;;6159934;23;20061;-85
2020/12/31 03:03:49;;;;;;;6.72;5.10;;;-0.70;99.90;;;;;;6133304;23;20033;-85
2020/12/31 03:06:16;;;;;;;12.45;6.40;;;-0.60;99.90;;;;;;6159503;23;20022;-85
2020/12/31 03:08:44;;;;;;;8.57;5.90;;;-0.50;99.90;;;;;;6160181;23;20100;-84
2020/12/31 03:11:17;;;;;;;8.18;5.53;;;-0.40;99.90;;;;;;6159554;23;20021;-84
2020/12/31 03:13:44;;;;;;;11.10;7.13;;;-0.40;99.90;;;;;;6159214;23;20025;-85
2020/12/31 03:16:10;;;;;;;9.10;6.25;;;-0.30;99.90;;;;;;6132757;23;20053;-85
2020/12/31 03:18:37;;;;;;;8.20;5.90;;;-0.20;99.90;;;;;;6131998;23;20053;-84
2020/12/31 03:21:04;;;;;;;12.18;7.13;;;-0.20;99.90;;;;;;6158229;23;20072;-84
2020/12/31 03:23:30;;;;;;;10.80;7.93;;;-0.20;99.90;;;;;;6132267;23;20028;-84
2020/12/31 03:25:56;;;;;;;12.27;7.78;;;-0.30;99.90;;;;;;6131435;23;20110;-84
2020/12/31 03:28:23;;;;;;;10.40;7.20;;;-0.20;99.90;;;;;;6158645;23;20453;-84
2020/12/31 03:30:49;;;;;;;11.88;7.38;;;-0.20;99.90;;;;;;6132557;23;20402;-84
2020/12/31 03:33:16;;;;;;;8.13;5.95;;;-0.30;99.90;;;;;;6158061;23;20026;-85
2020/12/31 03:35:44;;;;;;;10.38;7.13;;;-0.30;99.90;;;;;;6157721;23;20074;-84
2020/12/31 03:38:11;;;;;;;11.35;7.70;;;-0.40;99.90;;;;;;6157468;23;20022;-83
2020/12/31 03:40:38;;;;;;;10.98;7.25;;;-0.40;99.90;;;;;;6157349;23;20037;-84
2020/12/31 03:43:06;;;;;;;11.27;7.72;;;-0.40;99.90;;;;;;6131591;23;20076;-84
2020/12/31 03:45:32;;;;;;;10.73;7.10;;;-0.40;99.90;;;;;;6131863;23;20057;-85
2020/12/31 03:47:59;;;;;;;11.38;7.93;;;-0.40;99.90;;;;;;6158337;23;20460;-83
2020/12/31 03:50:26;;;;;;;15.02;8.18;;;-0.30;99.90;;;;;;6157925;23;20048;-84
2020/12/31 03:52:52;;;;;;;9.02;7.28;;;-0.20;99.90;;;;;;6158579;23;20057;-84
2020/12/31 03:55:19;;;;;;;10.13;7.65;;;-0.20;99.90;;;;;;6158385;23;20072;-85
2020/12/31 03:57:45;;;;;;;8.77;7.30;;;-0.10;99.90;;;;;;6131191;23;20108;-83
2020/12/31 04:00:12;;;;;;;11.10;6.85;;;-0.20;99.90;;;;;;6156024;23;20057;-84
2020/12/31 04:02:39;;;;;;;9.82;7.28;;;-0.30;99.90;;;;;;6130085;23;20503;-84
2020/12/31 04:05:06;;;;;;;9.05;6.78;;;-0.40;99.90;;;;;;6156217;23;20025;-83
2020/12/31 04:07:33;;;;;;;7.63;6.20;;;-0.40;99.90;;;;;;6130687;23;20056;-84
2020/12/31 04:09:59;;;;;;;8.57;7.05;;;-0.50;99.90;;;;;;6155925;23;20021;-83
2020/12/31 04:12:26;;;;;;;9.85;6.93;;;-0.50;99.90;;;;;;6130449;23;20076;-83
2020/12/31 04:14:52;;;;;;;12.23;8.23;;;-0.50;99.90;;;;;;6130627;23;20079;-83
2020/12/31 04:17:18;;;;;;;12.50;9.15;;;-0.40;99.90;;;;;;6130111;23;20029;-84
2020/12/31 04:19:44;;;;;;;9.68;7.53;;;-0.40;99.90;;;;;;6156005;23;20025;-84
2020/12/31 04:22:11;;;;;;;12.93;9.25;;;-0.30;99.90;;;;;;6133062;23;20043;-85
2020/12/31 04:24:37;;;;;;;10.88;7.85;;;-0.30;99.90;;;;;;6163025;23;20048;-85
2020/12/31 04:27:03;;;;;;;9.68;7.60;;;-0.40;99.90;;;;;;6163257;23;20021;-85
2020/12/31 04:29:29;;;;;;;11.20;8.07;;;-0.40;99.90;;;;;;6162546;23;20021;-85
2020/12/31 04:31:56;;;;;;;10.43;7.93;;;-0.50;99.90;;;;;;6136268;23;20025;-84
2020/12/31 04:34:22;;;;;;;9.57;7.72;;;-0.60;99.90;;;;;;6135412;23;20487;-85
2020/12/31 04:36:48;;;;;;;13.77;7.88;;;-0.60;99.90;;;;;;6135468;23;20068;-85
2020/12/31 04:39:15;;;;;;;11.18;8.35;;;-0.70;99.90;;;;;;6161156;23;20057;-85
2020/12/31 04:41:43;;;;;;;14.25;10.80;;;-0.70;99.90;;;;;;6135034;23;20029;-85
2020/12/31 04:44:13;;;;;;;18.98;12.07;;;-0.60;99.90;;;;;;6134166;23;20024;-85
2020/12/31 04:46:41;;;;;;;23.50;15.23;;;-0.40;99.90;;;;;;6159711;23;20021;-84
2020/12/31 04:49:12;;;;;;;23.98;15.65;;;-0.20;99.90;;;;;;6160097;23;20025;-84
2020/12/31 04:51:39;;;;;;;24.67;16.88;;;0.10;99.90;;;;;;6159383;23;20017;-84
2020/12/31 04:54:07;;;;;;;20.02;14.68;;;0.30;99.90;;;;;;6132348;23;20334;-85
2020/12/31 04:56:35;;;;;;;17.77;14.48;;;0.50;99.90;;;;;;6132443;23;20025;-85
2020/12/31 04:59:02;;;;;;;16.23;13.10;;;0.70;99.90;;;;;;6131800;23;20352;-84
2020/12/31 05:01:29;;;;;;;14.05;11.45;;;0.80;99.90;;;;;;6157065;23;20025;-85
2020/12/31 05:03:55;;;;;;;10.85;9.60;;;0.90;99.90;;;;;;6156701;23;20057;-83
2020/12/31 05:06:23;;;;;;;15.52;11.48;;;0.90;99.90;;;;;;6130768;23;20052;-85
2020/12/31 05:08:51;;;;;;;11.20;9.95;;;0.90;99.90;;;;;;6130913;23;20022;-84
2020/12/31 05:11:17;;;;;;;11.70;9.93;;;0.90;99.90;;;;;;6156553;23;20096;-83
2020/12/31 05:13:46;;;;;;;11.98;9.73;;;1.10;99.90;;;;;;6130611;23;20527;-85
2020/12/31 05:16:13;;;;;;;13.00;9.90;;;1.10;99.90;;;;;;6131112;23;20076;-84
2020/12/31 05:18:40;;;;;;;9.60;8.60;;;1.10;99.90;;;;;;6157281;23;20049;-84
2020/12/31 05:21:15;;;;;;;9.70;8.70;;;1.20;99.90;;;;;;6157080;23;20029;-83
2020/12/31 05:23:44;;;;;;;9.10;8.00;;;1.30;99.90;;;;;;6156267;23;20021;-84
2020/12/31 05:26:11;;;;;;;8.43;7.63;;;1.30;99.90;;;;;;6130458;23;20084;-82
2020/12/31 05:28:38;;;;;;;8.05;7.28;;;1.40;99.90;;;;;;6130169;23;20022;-84
2020/12/31 05:31:11;;;;;;;7.88;7.07;;;1.30;99.90;;;;;;6130610;23;20384;-83
2020/12/31 05:33:39;;;;;;;8.20;7.40;;;1.40;99.90;;;;;;6130509;23;20018;-83
2020/12/31 05:36:26;;;;;;;6.78;6.13;;;1.40;99.90;;;;;;6130501;23;20018;-84
2020/12/31 05:39:00;;;;;;;6.32;5.72;;;1.30;99.90;;;;;;6130664;23;20461;-83
2020/12/31 05:41:34;;;;;;;6.80;5.82;;;1.30;99.90;;;;;;6158690;23;20025;-84
2020/12/31 05:44:08;;;;;;;9.00;6.55;;;1.20;99.90;;;;;;6132655;23;20021;-81
2020/12/31 05:46:36;;;;;;;7.15;6.45;;;1.20;99.90;;;;;;6159336;23;20052;-82
2020/12/31 05:49:02;;;;;;;7.43;6.70;;;1.30;99.90;;;;;;6158711;23;20072;-82
2020/12/31 05:51:30;;;;;;;6.82;5.82;;;1.30;99.90;;;;;;6157607;23;20059;-82
2020/12/31 05:54:11;;;;;;;5.72;5.22;;;1.40;99.90;;;;;;6158031;23;20052;-81
2020/12/31 05:56:39;;;;;;;6.00;5.50;;;1.40;99.90;;;;;;6132050;23;20057;-82
2020/12/31 05:59:14;;;;;;;5.82;5.32;;;1.50;99.90;;;;;;6132196;23;20473;-82
2020/12/31 06:02:00;;;;;;;6.35;5.25;;;1.50;99.90;;;;;;6159002;23;20025;-82
2020/12/31 06:04:29;;;;;;;5.05;4.65;;;1.60;99.90;;;;;;6158138;23;20021;-83
2020/12/31 06:07:03;;;;;;;5.93;5.22;;;1.60;99.90;;;;;;6159368;23;20025;-83
2020/12/31 06:09:42;;;;;;;5.80;5.22;;;1.60;99.90;;;;;;6158276;23;20018;-82
2020/12/31 06:12:13;;;;;;;5.75;5.25;;;1.70;99.90;;;;;;6159998;23;20025;-83
2020/12/31 06:14:44;;;;;;;5.60;5.00;;;1.70;99.90;;;;;;6165669;23;20353;-83
2020/12/31 06:17:19;;;;;;;5.50;5.00;;;1.70;99.90;;;;;;6165244;23;20025;-83
2020/12/31 06:20:00;;;;;;;5.22;4.75;;;1.60;99.90;;;;;;6164863;23;20056;-83
2020/12/31 06:23:01;;;;;;;7.55;5.55;;;1.60;99.90;;;;;;6163225;23;20480;-83
2020/12/31 06:25:32;;;;;;;6.30;5.70;;;1.70;99.90;;;;;;6162061;23;20021;-84
2020/12/31 06:28:09;;;;;;;6.35;5.10;;;1.70;99.90;;;;;;6162481;23;20329;-83
2020/12/31 06:30:38;;;;;;;5.18;4.78;;;1.70;99.90;;;;;;6161996;23;20024;-83
2020/12/31 06:33:39;;;;;;;5.78;5.28;;;1.70;99.90;;;;;;6161227;23;20053;-84
2020/12/31 06:36:05;;;;;;;6.75;5.65;;;1.70;99.90;;;;;;6155306;23;20033;-83
2020/12/31 06:38:37;;;;;;;6.05;5.22;;;1.70;99.90;;;;;;6162610;23;20486;-83
2020/12/31 06:41:25;;;;;;;6.07;5.47;;;1.70;99.90;;;;;;6162464;23;20029;-83
2020/12/31 06:44:09;;;;;;;5.47;4.97;;;1.70;99.90;;;;;;6162191;23;20017;-83
2020/12/31 06:46:46;;;;;;;5.43;4.90;;;1.70;99.90;;;;;;6159005;23;20045;-83
2020/12/31 06:49:13;;;;;;;5.15;4.65;;;1.70;99.90;;;;;;6159895;23;20117;-82
2020/12/31 06:51:40;;;;;;;5.18;4.78;;;1.70;99.90;;;;;;6158996;23;20028;-83
2020/12/31 06:54:06;;;;;;;6.55;5.00;;;1.70;99.90;;;;;;6160878;23;20033;-83
2020/12/31 06:56:46;;;;;;;5.10;4.68;;;1.70;99.90;;;;;;6158798;23;20025;-83
2020/12/31 06:59:34;;;;;;;6.30;4.85;;;1.60;99.90;;;;;;6159994;23;20022;-82
2020/12/31 07:02:22;;;;;;;4.47;4.10;;;1.60;99.90;;;;;;6159879;23;20425;-82
2020/12/31 07:04:49;;;;;;;6.82;4.55;;;1.60;99.90;;;;;;6133649;23;20060;-83
2020/12/31 07:07:18;;;;;;;4.40;3.85;;;1.50;99.90;;;;;;6160461;23;20026;-83
2020/12/31 07:09:54;;;;;;;4.28;3.88;;;1.50;99.90;;;;;;6160432;23;20057;-82
2020/12/31 07:12:34;;;;;;;4.32;4.00;;;1.50;99.90;;;;;;6133539;23;20093;-83
2020/12/31 07:15:02;;;;;;;4.43;4.03;;;1.50;99.90;;;;;;6159462;23;20096;-84
2020/12/31 07:17:37;;;;;;;4.68;4.03;;;1.60;99.90;;;;;;6133181;23;20032;-82
2020/12/31 07:20:16;;;;;;;4.72;4.32;;;1.60;99.90;;;;;;6132728;23;20464;-83
2020/12/31 07:22:43;;;;;;;4.18;3.88;;;1.60;99.90;;;;;;6159270;23;20073;-82
2020/12/31 07:25:14;;;;;;;4.55;4.15;;;1.60;99.90;;;;;;6133321;23;20049;-83
2020/12/31 07:27:43;;;;;;;4.70;4.15;;;1.60;99.90;;;;;;6159360;23;20045;-82
2020/12/31 07:30:17;;;;;;;4.30;4.00;;;1.60;99.90;;;;;;6132601;23;20060;-82
2020/12/31 07:32:59;;;;;;;6.72;4.35;;;1.70;99.90;;;;;;6133044;23;20092;-83
2020/12/31 07:35:40;;;;;;;3.75;3.45;;;1.70;99.90;;;;;;6158792;23;20489;-82
2020/12/31 07:38:08;;;;;;;4.72;4.25;;;1.80;99.90;;;;;;6132644;23;20033;-83
2020/12/31 07:40:45;;;;;;;4.63;3.75;;;1.80;99.90;;;;;;6133393;23;20032;-83
2020/12/31 07:43:12;;;;;;;4.35;3.90;;;1.90;99.90;;;;;;6131364;23;20064;-82
2020/12/31 07:45:44;;;;;;;5.88;4.25;;;1.80;99.90;;;;;;6157463;23;20053;-82
2020/12/31 07:48:11;;;;;;;5.13;4.50;;;1.90;99.90;;;;;;6157043;23;20032;-84
2020/12/31 07:50:37;;;;;;;7.47;4.45;;;1.90;99.90;;;;;;6131499;23;20025;-84
2020/12/31 07:53:03;;;;;;;4.43;4.00;;;2.00;99.90;;;;;;6157134;23;20093;-85
2020/12/31 07:55:30;;;;;;;4.20;3.90;;;2.00;99.90;;;;;;6157221;23;20460;-84
2020/12/31 07:57:57;;;;;;;4.45;4.13;;;2.00;99.90;;;;;;6132032;23;20054;-82
2020/12/31 08:00:23;;;;;;;6.13;4.30;;;2.00;99.90;;;;;;6157192;23;20101;-84
2020/12/31 08:02:51;;;;;;;4.25;3.85;;;2.00;99.90;;;;;;6157908;23;20026;-82
2020/12/31 08:05:22;;;;;;;5.80;3.67;;;2.00;99.90;;;;;;6158506;23;20021;-85
2020/12/31 08:07:57;;;;;;;4.07;3.75;;;2.00;99.90;;;;;;6161041;23;20060;-83
2020/12/31 08:10:37;;;;;;;4.63;4.03;;;2.10;99.90;;;;;;6162298;23;20025;-85
2020/12/31 08:13:05;;;;;;;4.18;3.78;;;2.10;99.90;;;;;;6136273;23;20021;-85
2020/12/31 08:15:32;;;;;;;4.30;3.90;;;2.20;99.90;;;;;;6161542;23;20021;-85
2020/12/31 08:18:02;;;;;;;4.45;4.07;;;2.20;99.90;;;;;;6160972;23;20080;-85
2020/12/31 08:20:37;;;;;;;4.35;3.95;;;2.20;99.90;;;;;;6160556;23;20025;-86
2020/12/31 08:23:05;;;;;;;5.05;4.55;;;2.10;99.90;;;;;;6160610;23;20025;-85
2020/12/31 08:25:37;;;;;;;6.25;5.30;;;2.10;99.90;;;;;;6134218;23;20049;-85
2020/12/31 08:28:05;;;;;;;6.70;5.97;;;1.90;99.90;;;;;;6134485;23;20025;-85
2020/12/31 08:30:38;;;;;;;5.90;5.30;;;2.00;99.90;;;;;;6134052;23;20045;-85
2020/12/31 08:33:07;;;;;;;5.45;4.75;;;2.00;99.90;;;;;;6160866;23;20475;-85
2020/12/31 08:35:44;;;;;;;5.57;5.07;;;2.10;99.90;;;;;;6133516;23;20026;-85
2020/12/31 08:38:13;;;;;;;6.60;5.32;;;2.20;99.90;;;;;;6133118;23;20386;-85
2020/12/31 08:40:57;;;;;;;103.60;51.85;;;2.30;99.90;;;;;;6160155;23;20444;-86
2020/12/31 08:43:25;;;;;;;15.10;9.48;;;2.30;99.90;;;;;;6159401;23;20053;-85
2020/12/31 08:45:56;;;;;;;17.88;10.88;;;2.20;99.90;;;;;;6133564;23;20021;-86
2020/12/31 08:48:25;;;;;;;8.95;6.43;;;2.30;99.90;;;;;;6134203;23;20021;-83
2020/12/31 08:51:12;;;;;;;23.15;14.52;;;2.40;99.90;;;;;;6133330;23;20021;-86
2020/12/31 08:54:00;;;;;;;7.32;5.50;;;2.40;99.90;;;;;;6135623;23;20448;-86
2020/12/31 08:56:33;;;;;;;7.40;6.13;;;2.40;99.90;;;;;;6158985;23;20021;-86
2020/12/31 08:59:12;;;;;;;5.82;4.68;;;2.50;99.90;;;;;;6158939;23;20024;-86
2020/12/31 09:01:41;;;;;;;4.40;4.03;;;2.80;99.90;;;;;;6158241;23;20059;-86
2020/12/31 09:04:18;;;;;;;4.75;4.35;;;2.90;99.90;;;;;;6157988;23;20018;-86
2020/12/31 09:06:46;;;;;;;28.02;19.75;;;3.10;99.90;;;;;;6133255;23;20022;-86
2020/12/31 09:09:26;;;;;;;7.95;6.22;;;3.10;99.90;;;;;;6158456;23;20512;-86
2020/12/31 09:11:59;;;;;;;5.45;4.32;;;3.30;99.90;;;;;;6132644;23;20024;-86
2020/12/31 09:14:26;;;;;;;3.63;3.33;;;3.50;99.90;;;;;;6158230;23;20400;-86
2020/12/31 09:16:52;;;;;;;4.35;3.95;;;3.60;99.90;;;;;;6132034;23;20048;-84
2020/12/31 09:19:19;;;;;;;5.03;4.50;;;3.60;99.90;;;;;;6158404;23;20053;-86
2020/12/31 09:21:46;;;;;;;5.65;4.50;;;3.70;99.90;;;;;;6132393;23;20021;-86
2020/12/31 09:24:21;;;;;;;4.97;4.47;;;3.90;99.90;;;;;;6132126;23;20017;-86
2020/12/31 09:26:54;;;;;;;6.97;5.88;;;4.00;99.90;;;;;;6132007;23;20064;-86
2020/12/31 09:29:20;;;;;;;4.10;3.70;;;3.90;99.90;;;;;;6132644;23;20029;-86
2020/12/31 09:31:47;;;;;;;3.22;3.03;;;3.70;99.90;;;;;;6157886;23;20028;-86
2020/12/31 09:34:14;;;;;;;4.28;3.50;;;3.60;99.90;;;;;;6157503;23;20025;-86
2020/12/31 09:36:41;;;;;;;4.25;3.78;;;3.60;99.90;;;;;;6155968;23;20407;-86
2020/12/31 09:39:08;;;;;;;4.20;3.80;;;3.50;99.90;;;;;;6129712;23;20476;-86
2020/12/31 09:41:34;;;;;;;3.67;3.38;;;3.40;99.90;;;;;;6156417;23;20025;-86
2020/12/31 09:44:01;;;;;;;4.43;3.80;;;3.40;99.90;;;;;;6137262;23;20017;-85
2020/12/31 09:46:28;;;;;;;4.10;3.80;;;3.30;99.90;;;;;;6156799;23;20016;-82
2020/12/31 09:48:55;;;;;;;6.47;4.00;;;3.40;99.90;;;;;;6181824;23;20010;-85
2020/12/31 09:51:21;;;;;;;4.47;4.07;;;3.30;99.90;;;;;;6156428;23;20006;-87
2020/12/31 09:53:50;;;;;;;4.15;3.85;;;3.40;99.90;;;;;;6167400;23;20476;-87
2020/12/31 09:56:17;;;;;;;4.13;3.83;;;3.40;99.90;;;;;;6164096;23;20017;-87
2020/12/31 09:58:43;;;;;;;7.78;5.75;;;3.50;99.90;;;;;;6146973;23;20049;-87
2020/12/31 10:01:10;;;;;;;5.55;4.72;;;3.50;99.90;;;;;;6140109;23;20076;-87
2020/12/31 10:03:36;;;;;;;4.18;3.78;;;3.60;99.90;;;;;;6162036;23;20022;-86
2020/12/31 10:06:06;;;;;;;4.95;4.55;;;3.60;99.90;;;;;;6137415;23;20024;-87
2020/12/31 10:08:32;;;;;;;6.45;3.88;;;3.70;99.90;;;;;;6136745;23;20364;-86
2020/12/31 10:11:00;;;;;;;4.13;3.72;;;3.70;99.90;;;;;;6136160;23;20079;-86
2020/12/31 10:13:27;;;;;;;5.20;4.75;;;3.90;99.90;;;;;;6136443;23;20021;-87
2020/12/31 10:15:53;;;;;;;4.85;4.13;;;4.00;99.90;;;;;;6136239;23;20026;-86
2020/12/31 10:18:19;;;;;;;4.60;4.20;;;4.00;99.90;;;;;;6135740;23;20460;-88
2020/12/31 10:20:46;;;;;;;3.80;3.50;;;4.00;99.90;;;;;;6137544;23;20045;-84
2020/12/31 10:23:12;;;;;;;4.40;4.00;;;4.00;99.90;;;;;;6137003;23;20080;-86
2020/12/31 10:25:38;;;;;;;5.50;4.70;;;4.20;99.90;;;;;;6136158;23;20372;-87
2020/12/31 10:28:04;;;;;;;6.45;4.50;;;4.20;99.90;;;;;;6136193;23;20029;-87
2020/12/31 10:30:31;;;;;;;5.13;3.83;;;4.40;99.90;;;;;;6135743;23;20073;-87
2020/12/31 10:32:57;;;;;;;4.65;4.18;;;4.40;99.90;;;;;;6134681;23;20049;-86
2020/12/31 10:35:23;;;;;;;4.68;4.28;;;4.40;99.90;;;;;;6137027;23;20026;-87
2020/12/31 10:37:49;;;;;;;3.83;3.53;;;4.40;99.90;;;;;;6138369;23;20033;-87
2020/12/31 10:40:16;;;;;;;4.45;3.70;;;4.30;99.90;;;;;;6162597;23;20061;-86
2020/12/31 10:42:42;;;;;;;4.93;4.43;;;4.30;99.90;;;;;;6163655;23;20026;-87
2020/12/31 10:45:08;;;;;;;4.65;4.22;;;4.30;99.90;;;;;;6162437;23;20022;-87
2020/12/31 10:47:35;;;;;;;4.90;4.50;;;4.40;99.90;;;;;;6136961;23;20045;-87
2020/12/31 10:50:02;;;;;;;5.28;4.30;;;4.40;99.90;;;;;;6162824;23;20381;-87
2020/12/31 10:52:28;;;;;;;4.07;3.78;;;4.50;99.90;;;;;;6162793;23;20029;-87
2020/12/31 10:54:55;;;;;;;4.75;4.03;;;4.60;99.90;;;;;;6135742;23;20496;-87
2020/12/31 10:57:21;;;;;;;4.53;4.13;;;4.60;99.90;;;;;;6163068;23;20022;-87
2020/12/31 10:59:47;;;;;;;4.78;3.97;;;4.70;99.90;;;;;;6136243;23;20125;-87
2020/12/31 11:02:14;;;;;;;5.03;4.57;;;4.70;99.90;;;;;;6135843;23;20400;-87
2020/12/31 11:04:40;;;;;;;4.68;4.30;;;4.80;99.90;;;;;;6135777;23;20025;-86
2020/12/31 11:07:06;;;;;;;5.15;4.75;;;5.00;99.90;;;;;;6135593;23;20025;-87
2020/12/31 11:09:32;;;;;;;4.72;4.32;;;5.10;99.90;;;;;;6135311;23;20072;-87
2020/12/31 11:11:59;;;;;;;4.78;4.22;;;5.20;99.90;;;;;;6135812;23;20044;-88
2020/12/31 11:14:25;;;;;;;5.05;4.65;;;5.30;99.90;;;;;;6136726;23;20402;-87
2020/12/31 11:16:51;;;;;;;4.13;3.80;;;5.40;99.90;;;;;;6161682;23;20021;-87
2020/12/31 11:19:18;;;;;;;4.20;3.85;;;5.40;99.90;;;;;;6136290;23;20482;-88
2020/12/31 11:21:44;;;;;;;5.28;4.18;;;5.30;99.90;;;;;;6135894;23;20033;-87
2020/12/31 11:24:10;;;;;;;4.35;3.95;;;5.30;99.90;;;;;;6161450;23;20029;-86
2020/12/31 11:26:37;;;;;;;5.20;4.60;;;5.30;99.90;;;;;;6161816;23;20030;-87
2020/12/31 11:29:04;;;;;;;4.95;4.47;;;5.20;99.90;;;;;;6131712;23;20430;-87
2020/12/31 11:31:30;;;;;;;4.40;4.00;;;5.20;99.90;;;;;;6131975;23;20017;-86
2020/12/31 11:34:00;;;;;;;10.15;8.88;;;5.30;99.90;;;;;;6158478;23;20026;-84
2020/12/31 11:36:27;;;;;;;4.55;4.15;;;5.50;99.90;;;;;;6157984;23;20068;-84
2020/12/31 11:38:55;;;;;;;5.55;4.35;;;5.60;99.90;;;;;;6132329;23;20018;-87
2020/12/31 11:41:21;;;;;;;4.20;3.80;;;5.60;99.90;;;;;;6132329;23;20018;-84
2020/12/31 11:43:48;;;;;;;3.42;3.13;;;5.60;99.90;;;;;;6133234;23;20029;-86
2020/12/31 11:46:15;;;;;;;4.18;3.85;;;5.70;99.90;;;;;;6131952;23;20115;-87
2020/12/31 11:48:41;;;;;;;3.60;3.30;;;5.90;99.90;;;;;;6135676;23;20021;-87
2020/12/31 11:51:09;;;;;;;3.88;3.58;;;6.50;99.90;;;;;;6138672;23;20056;-87
2020/12/31 11:53:36;;;;;;;3.90;3.60;;;7.00;99.90;;;;;;6136123;23;20032;-87
2020/12/31 11:56:04;;;;;;;4.50;4.10;;;6.90;99.90;;;;;;6136593;23;20049;-87
2020/12/31 11:58:31;;;;;;;3.90;3.58;;;6.80;99.90;;;;;;6137073;23;20084;-88
2020/12/31 12:00:58;;;;;;;4.40;4.00;;;6.60;99.90;;;;;;6162880;23;20025;-87
2020/12/31 12:03:25;;;;;;;3.97;3.67;;;6.40;99.90;;;;;;6136554;23;20025;-86
2020/12/31 12:05:52;;;;;;;4.32;3.83;;;6.20;99.90;;;;;;6162051;23;20054;-86
2020/12/31 12:08:21;;;;;;;3.83;3.53;;;6.30;99.90;;;;;;6134941;23;20021;-87
2020/12/31 12:10:51;;;;;;;3.80;3.40;;;6.50;99.90;;;;;;6161337;23;20025;-86
2020/12/31 12:13:18;;;;;;;3.85;3.55;;;6.60;99.90;;;;;;6134662;23;20022;-83
2020/12/31 12:15:44;;;;;;;3.75;3.45;;;6.80;99.90;;;;;;6160509;23;20025;-85
2020/12/31 12:18:10;;;;;;;3.67;3.45;;;6.80;99.90;;;;;;6159584;23;20412;-87
2020/12/31 12:20:37;;;;;;;3.75;3.45;;;6.80;99.90;;;;;;6134636;23;20116;-86
2020/12/31 12:23:03;;;;;;;5.72;4.07;;;6.80;99.90;;;;;;6160229;23;20026;-85
2020/12/31 12:25:30;;;;;;;3.83;3.50;;;6.70;99.90;;;;;;6133464;23;20037;-87
2020/12/31 12:27:57;;;;;;;4.13;3.72;;;6.90;99.90;;;;;;6133821;23;20476;-86
2020/12/31 12:30:23;;;;;;;4.20;3.80;;;6.80;99.90;;;;;;6159664;23;20029;-86
2020/12/31 12:32:50;;;;;;;3.80;3.60;;;6.70;99.90;;;;;;6133796;23;20072;-86
2020/12/31 12:35:16;;;;;;;6.07;3.78;;;6.60;99.90;;;;;;6133257;23;20025;-87
2020/12/31 12:37:43;;;;;;;4.60;4.00;;;6.90;99.90;;;;;;6134082;23;20022;-86
2020/12/31 12:40:09;;;;;;;5.88;3.95;;;6.60;99.90;;;;;;6133641;23;20017;-86
2020/12/31 12:42:36;;;;;;;4.32;3.92;;;6.60;99.90;;;;;;6133571;23;20021;-83
2020/12/31 12:45:07;;;;;;;5.13;4.65;;;6.40;99.90;;;;;;6159321;23;20018;-85
2020/12/31 12:47:34;;;;;;;8.90;5.38;;;6.20;99.90;;;;;;6133285;23;20045;-86
2020/12/31 12:50:04;;;;;;;4.38;4.05;;;5.90;99.90;;;;;;6159111;23;20359;-84
2020/12/31 12:52:30;;;;;;;5.68;4.25;;;5.80;99.90;;;;;;6133357;23;20025;-86
2020/12/31 12:54:57;;;;;;;4.07;3.78;;;5.80;99.90;;;;;;6132740;23;20057;-86
2020/12/31 12:57:25;;;;;;;4.40;4.10;;;5.90;99.90;;;;;;6133724;23;20021;-86
2020/12/31 12:59:52;;;;;;;5.03;4.40;;;5.80;99.90;;;;;;6133357;23;20026;-86